Time;durP1;ratioP1;P1;durP2;ratioP2;P2;SDS_P1;SDS_P2;PMS_P1;PMS_P2;Temp;Humidity;BMP_temperature;BMP_pressure;BME280_temperature;BME280_humidity;BME280_pressure;Samples;Min_cycle;Max_cycle;Signal;HPM_P1;HPM_P2
2023/12/21 00:00:47;;;;;;;5.90;2.45;;;;;;;3.40;100.00;97150.84;5068865;28;20762;-82
2023/12/21 00:03:13;;;;;;;3.65;2.50;;;;;;;3.36;100.00;97149.69;5064422;28;20463;-82
2023/12/21 00:05:40;;;;;;;4.18;2.40;;;;;;;3.40;100.00;97140.38;5064005;28;20417;-81
2023/12/21 00:08:06;;;;;;;4.00;2.40;;;;;;;3.40;100.00;97137.78;5066034;28;20452;-81
2023/12/21 00:10:32;;;;;;;3.40;2.20;;;;;;;3.40;100.00;97131.75;5056147;28;20395;-82
2023/12/21 00:12:58;;;;;;;5.38;2.42;;;;;;;3.41;100.00;97136.75;5063069;28;20432;-81
2023/12/21 00:15:26;;;;;;;4.68;2.00;;;;;;;3.40;100.00;97127.31;5055434;28;20914;-82
2023/12/21 00:17:52;;;;;;;2.50;2.30;;;;;;;3.42;100.00;97129.72;5053777;28;20413;-82
2023/12/21 00:20:20;;;;;;;2.63;2.00;;;;;;;3.39;100.00;97130.94;5055287;28;20403;-83
2023/12/21 00:22:46;;;;;;;3.35;2.00;;;;;;;3.39;100.00;97122.28;5042983;28;20419;-82
2023/12/21 00:25:12;;;;;;;2.72;2.08;;;;;;;3.36;100.00;97110.44;5040571;28;20410;-82
2023/12/21 00:27:38;;;;;;;2.40;2.00;;;;;;;3.35;100.00;97105.41;5040377;28;20414;-82
2023/12/21 00:30:06;;;;;;;2.50;2.00;;;;;;;3.32;100.00;97100.59;5053919;28;20391;-83
2023/12/21 00:32:34;;;;;;;2.80;2.00;;;;;;;3.34;100.00;97107.22;5042308;28;20527;-83
2023/12/21 00:35:00;;;;;;;2.05;1.85;;;;;;;3.34;100.00;97104.63;5035335;28;20505;-83
2023/12/21 00:37:26;;;;;;;2.95;1.80;;;;;;;3.31;100.00;97091.94;5040544;28;20409;-83
2023/12/21 00:39:52;;;;;;;3.33;1.98;;;;;;;3.34;100.00;97082.88;5041377;28;20879;-83
2023/12/21 00:42:19;;;;;;;2.40;1.80;;;;;;;3.35;100.00;97089.72;5035854;28;20422;-82
2023/12/21 00:44:46;;;;;;;2.83;1.90;;;;;;;3.35;100.00;97093.16;5036485;28;20409;-83
2023/12/21 00:47:12;;;;;;;2.45;2.25;;;;;;;3.34;100.00;97096.78;5052261;28;20960;-82
2023/12/21 00:49:39;;;;;;;2.10;1.60;;;;;;;3.38;100.00;97097.16;5044687;28;20399;-82
2023/12/21 00:52:06;;;;;;;1.70;1.60;;;;;;;3.38;100.00;97090.09;5050110;28;20832;-82
2023/12/21 00:54:32;;;;;;;2.00;1.80;;;;;;;3.37;100.00;97103.41;5053917;28;20405;-83
2023/12/21 00:56:58;;;;;;;1.70;1.60;;;;;;;3.38;100.00;97105.78;5054247;28;20401;-82
2023/12/21 00:59:24;;;;;;;1.50;1.40;;;;;;;3.42;100.00;97093.91;5053486;28;20397;-83
2023/12/21 01:01:51;;;;;;;1.80;1.70;;;;;;;3.43;100.00;97085.03;5053392;28;20786;-82
2023/12/21 01:04:17;;;;;;;1.63;1.52;;;;;;;3.41;100.00;97081.81;5054138;28;20431;-83
2023/12/21 01:06:44;;;;;;;2.60;1.63;;;;;;;3.44;100.00;97094.50;5050205;28;20483;-82
2023/12/21 01:09:11;;;;;;;2.13;1.60;;;;;;;3.47;100.00;97093.25;5055020;28;20444;-83
2023/12/21 01:11:37;;;;;;;1.65;1.52;;;;;;;3.49;100.00;97081.56;5037938;28;20422;-82
2023/12/21 01:14:03;;;;;;;1.60;1.50;;;;;;;3.50;100.00;97074.50;5034404;28;20737;-83
2023/12/21 01:16:29;;;;;;;1.75;1.60;;;;;;;3.52;100.00;97076.94;5033828;28;20872;-83
2023/12/21 01:18:55;;;;;;;2.63;1.60;;;;;;;3.52;100.00;97061.22;5043448;28;20393;-83
2023/12/21 01:21:21;;;;;;;3.20;2.03;;;;;;;3.50;100.00;97056.19;5053683;28;20429;-83
2023/12/21 01:23:49;;;;;;;1.70;1.60;;;;;;;3.49;100.00;97058.00;5056799;28;20428;-83
2023/12/21 01:26:15;;;;;;;2.25;1.75;;;;;;;3.47;100.00;97054.00;5046027;28;20437;-82
2023/12/21 01:28:41;;;;;;;1.75;1.65;;;;;;;3.49;100.00;97049.34;5037632;28;20395;-81
2023/12/21 01:31:08;;;;;;;2.47;2.03;;;;;;;3.49;100.00;97044.94;5038622;28;20406;-82
2023/12/21 01:33:34;;;;;;;2.20;1.70;;;;;;;3.55;100.00;97052.94;5038290;28;20399;-82
2023/12/21 01:36:00;;;;;;;2.22;1.77;;;;;;;3.52;100.00;97040.28;5046084;28;20429;-82
2023/12/21 01:38:26;;;;;;;1.90;1.80;;;;;;;3.53;100.00;97045.31;5041252;28;20841;-82
2023/12/21 01:40:54;;;;;;;2.85;1.80;;;;;;;3.53;100.00;97042.69;5051163;28;20407;-82
2023/12/21 01:43:21;;;;;;;3.03;1.65;;;;;;;3.53;100.00;97040.09;5044779;28;20487;-82
2023/12/21 01:45:47;;;;;;;2.72;1.90;;;;;;;3.55;100.00;97047.69;5039241;28;20956;-81
2023/12/21 01:48:14;;;;;;;1.80;1.70;;;;;;;3.62;100.00;97043.19;5038304;28;20879;-81
2023/12/21 01:50:41;;;;;;;2.05;1.70;;;;;;;3.58;100.00;97034.19;5037761;28;20403;-82
2023/12/21 01:53:09;;;;;;;2.13;1.92;;;;;;;3.61;100.00;97031.94;5055377;28;20398;-82
2023/12/21 01:55:36;;;;;;;1.95;1.60;;;;;;;3.59;100.00;97026.13;5056385;28;20401;-82
2023/12/21 01:58:04;;;;;;;2.58;1.65;;;;;;;3.59;100.00;97002.59;5057495;28;20396;-82
2023/12/21 02:00:31;;;;;;;1.98;1.55;;;;;;;3.59;100.00;96999.97;5053899;28;20410;-82
2023/12/21 02:02:57;;;;;;;1.63;1.52;;;;;;;3.61;100.00;96979.59;5038024;28;20422;-82
2023/12/21 02:05:23;;;;;;;1.48;1.30;;;;;;;3.62;100.00;96986.44;5054281;28;20393;-82
2023/12/21 02:07:49;;;;;;;1.83;1.42;;;;;;;3.63;100.00;96982.00;5047714;28;20442;-82
2023/12/21 02:10:16;;;;;;;1.52;1.42;;;;;;;3.67;100.00;96977.94;5039088;28;20397;-82
2023/12/21 02:12:42;;;;;;;1.40;1.30;;;;;;;3.71;100.00;96968.63;5056247;28;20444;-82
2023/12/21 02:15:12;;;;;;;1.48;1.38;;;;;;;3.69;100.00;96973.28;5058312;28;20444;-82
2023/12/21 02:17:40;;;;;;;1.60;1.50;;;;;;;3.71;100.00;96976.47;5057527;28;20397;-81
2023/12/21 02:20:08;;;;;;;1.60;1.50;;;;;;;3.70;100.00;96967.81;5064988;28;20438;-82
2023/12/21 02:22:36;;;;;;;1.70;1.60;;;;;;;3.73;100.00;96969.22;5048223;28;20399;-83
2023/12/21 02:25:05;;;;;;;1.85;1.65;;;;;;;3.75;100.00;96973.22;5039495;28;20395;-82
2023/12/21 02:27:31;;;;;;;1.50;1.40;;;;;;;3.75;100.00;96969.81;5038369;28;20883;-82
2023/12/21 02:29:57;;;;;;;2.00;1.70;;;;;;;3.72;100.00;96972.84;5036630;28;20403;-81
2023/12/21 02:32:24;;;;;;;1.55;1.45;;;;;;;3.75;100.00;96957.53;5040071;28;20407;-82
2023/12/21 02:34:50;;;;;;;1.67;1.50;;;;;;;3.76;100.00;96938.16;5036282;28;20414;-82
2023/12/21 02:37:18;;;;;;;1.40;1.30;;;;;;;3.78;100.00;96943.97;5039396;28;20925;-83
2023/12/21 02:39:44;;;;;;;1.58;1.48;;;;;;;3.77;100.00;96916.19;5055597;28;20393;-83
2023/12/21 02:42:12;;;;;;;1.55;1.45;;;;;;;3.76;100.00;96934.78;5039249;28;20514;-82
2023/12/21 02:44:38;;;;;;;1.80;1.70;;;;;;;3.80;100.00;96914.97;5036599;28;20487;-82
2023/12/21 02:47:05;;;;;;;1.52;1.42;;;;;;;3.83;100.00;96925.03;5035469;28;20483;-82
2023/12/21 02:49:31;;;;;;;1.60;1.50;;;;;;;3.78;100.00;96917.81;5048968;28;20406;-82
2023/12/21 02:51:57;;;;;;;1.58;1.42;;;;;;;3.81;100.00;96901.66;5055044;28;20401;-81
2023/12/21 02:54:23;;;;;;;1.65;1.50;;;;;;;3.80;100.00;96894.03;5055106;28;20397;-83
2023/12/21 02:56:49;;;;;;;1.75;1.40;;;;;;;3.81;100.00;96911.34;5055736;28;20393;-82
2023/12/21 02:59:17;;;;;;;2.15;1.40;;;;;;;3.81;100.00;96887.78;5055736;28;20398;-82
2023/12/21 03:01:43;;;;;;;1.40;1.30;;;;;;;3.85;100.00;96883.69;5057042;28;20393;-82
2023/12/21 03:04:10;;;;;;;2.00;1.50;;;;;;;3.86;100.00;96869.59;5044338;28;20402;-83
2023/12/21 03:06:37;;;;;;;1.30;1.20;;;;;;;3.86;100.00;96859.91;5035344;28;20435;-83
2023/12/21 03:09:03;;;;;;;1.48;1.38;;;;;;;3.88;100.00;96838.75;5041648;28;20408;-83
2023/12/21 03:11:30;;;;;;;1.38;1.30;;;;;;;3.86;100.00;96849.44;5045694;28;20389;-83
2023/12/21 03:13:56;;;;;;;1.40;1.30;;;;;;;3.86;100.00;96856.50;5054786;28;20484;-81
2023/12/21 03:16:23;;;;;;;1.50;1.40;;;;;;;3.89;100.00;96871.78;5054847;28;20511;-82
2023/12/21 03:18:49;;;;;;;1.50;1.40;;;;;;;3.88;100.00;96878.03;5054687;28;20434;-83
2023/12/21 03:21:16;;;;;;;1.38;1.27;;;;;;;3.88;100.00;96857.09;5040424;28;20820;-83
2023/12/21 03:23:42;;;;;;;1.50;1.40;;;;;;;3.90;100.00;96862.91;5033896;28;20960;-82
2023/12/21 03:26:09;;;;;;;1.60;1.40;;;;;;;3.92;100.00;96854.81;5036678;28;20876;-82
2023/12/21 03:28:35;;;;;;;1.48;1.38;;;;;;;3.92;100.00;96865.28;5053879;28;20393;-80
2023/12/21 03:31:01;;;;;;;2.55;1.40;;;;;;;3.95;100.00;96859.59;5039734;28;20474;-82
2023/12/21 03:33:29;;;;;;;1.60;1.50;;;;;;;3.95;100.00;96860.41;5050724;28;20444;-82
2023/12/21 03:35:55;;;;;;;1.50;1.40;;;;;;;3.94;100.00;96864.03;5053534;28;20461;-82
2023/12/21 03:38:21;;;;;;;1.60;1.50;;;;;;;3.95;100.00;96860.41;5053869;28;20424;-81
2023/12/21 03:40:48;;;;;;;1.90;1.40;;;;;;;3.93;100.00;96849.34;5055952;28;20402;-82
2023/12/21 03:43:14;;;;;;;1.55;1.30;;;;;;;3.92;100.00;96852.19;5055274;28;20463;-83
2023/12/21 03:45:40;;;;;;;1.50;1.20;;;;;;;3.91;100.00;96845.38;5052856;28;20936;-83
2023/12/21 03:48:08;;;;;;;1.40;1.30;;;;;;;3.95;100.00;96849.94;5051673;28;20424;-82
2023/12/21 03:50:36;;;;;;;1.35;1.30;;;;;;;3.96;100.00;96856.78;5054551;28;20517;-82
2023/12/21 03:53:03;;;;;;;1.80;1.30;;;;;;;3.98;100.00;96874.88;5054705;28;20794;-82
2023/12/21 03:55:29;;;;;;;1.40;1.30;;;;;;;3.96;100.00;96880.34;5054046;28;20504;-82
2023/12/21 03:57:58;;;;;;;1.40;1.30;;;;;;;3.99;100.00;96864.16;5054515;28;20455;-82
2023/12/21 04:00:24;;;;;;;2.05;1.30;;;;;;;4.00;100.00;96862.34;5054059;28;20484;-81
2023/12/21 04:02:51;;;;;;;1.35;1.30;;;;;;;4.06;100.00;96862.25;5053654;28;20467;-82
2023/12/21 04:05:17;;;;;;;1.48;1.33;;;;;;;4.02;100.00;96844.59;5055152;28;20965;-80
2023/12/21 04:07:44;;;;;;;1.60;1.30;;;;;;;4.05;100.00;96844.97;5054474;28;20389;-82
2023/12/21 04:10:10;;;;;;;1.30;1.20;;;;;;;4.04;100.00;96860.91;5054407;28;20834;-82
2023/12/21 04:12:37;;;;;;;1.40;1.30;;;;;;;4.02;100.00;96861.13;5040449;28;20403;-82
2023/12/21 04:15:03;;;;;;;1.27;1.27;;;;;;;4.03;100.00;96852.25;5034825;28;20402;-82
2023/12/21 04:17:30;;;;;;;1.50;1.40;;;;;;;3.99;100.00;96839.81;5054856;28;20489;-82
2023/12/21 04:19:56;;;;;;;1.63;1.20;;;;;;;4.00;100.00;96836.16;5040661;28;20403;-82
2023/12/21 04:22:22;;;;;;;1.38;1.27;;;;;;;3.97;100.00;96834.00;5035058;28;20434;-83
2023/12/21 04:24:49;;;;;;;1.45;1.35;;;;;;;3.98;100.00;96830.38;5035288;28;20396;-82
2023/12/21 04:27:15;;;;;;;1.40;1.30;;;;;;;3.98;100.00;96828.56;5047789;28;20829;-83
2023/12/21 04:29:42;;;;;;;2.10;1.40;;;;;;;3.97;100.00;96820.91;5043122;28;20399;-82
2023/12/21 04:32:08;;;;;;;1.50;1.40;;;;;;;3.95;100.00;96815.09;5035203;28;20425;-80
2023/12/21 04:34:34;;;;;;;1.95;1.40;;;;;;;3.99;100.00;96811.00;5033538;28;20459;-81
2023/12/21 04:37:00;;;;;;;1.50;1.40;;;;;;;3.95;100.00;96817.72;5034418;28;20898;-81
2023/12/21 04:39:26;;;;;;;1.23;1.20;;;;;;;3.96;100.00;96811.47;5033795;28;20402;-83
2023/12/21 04:41:55;;;;;;;1.73;1.20;;;;;;;3.92;100.00;96802.44;5051116;28;20398;-82
2023/12/21 04:44:21;;;;;;;1.38;1.30;;;;;;;3.93;100.00;96809.28;5064882;28;20401;-84
2023/12/21 04:46:49;;;;;;;1.75;1.60;;;;;;;3.88;100.00;96794.25;5056838;28;20404;-82
2023/12/21 04:49:16;;;;;;;2.15;1.60;;;;;;;3.88;100.00;96784.56;5041614;28;20402;-80
2023/12/21 04:51:43;;;;;;;1.50;1.40;;;;;;;3.88;100.00;96786.41;5052274;28;20394;-82
2023/12/21 04:54:09;;;;;;;1.33;1.23;;;;;;;3.89;100.00;96806.31;5052622;28;20405;-82
2023/12/21 04:56:39;;;;;;;1.45;1.35;;;;;;;3.90;100.00;96794.84;5052997;28;20474;-83
2023/12/21 04:59:07;;;;;;;1.30;1.20;;;;;;;3.89;100.00;96788.00;5056305;28;20470;-82
2023/12/21 05:01:33;;;;;;;1.50;1.40;;;;;;;3.91;100.00;96780.69;5057697;28;20758;-83
2023/12/21 05:04:02;;;;;;;1.60;1.50;;;;;;;3.91;100.00;96770.22;5054235;28;20946;-83
2023/12/21 05:06:28;;;;;;;1.90;1.40;;;;;;;3.93;100.00;96756.91;5049758;28;20433;-84
2023/12/21 05:08:56;;;;;;;2.10;1.50;;;;;;;3.93;100.00;96751.69;5054867;28;20406;-83
2023/12/21 05:11:23;;;;;;;1.75;1.40;;;;;;;3.98;100.00;96751.81;5043370;28;20536;-83
2023/12/21 05:13:49;;;;;;;1.40;1.30;;;;;;;4.00;100.00;96768.88;5044317;28;20395;-82
2023/12/21 05:16:16;;;;;;;1.33;1.33;;;;;;;4.02;100.00;96763.44;5049028;28;20403;-82
2023/12/21 05:21:18;;;;;;;1.30;1.30;;;;;;;4.05;100.00;96760.38;5299118;22;20489;-85
2023/12/21 05:23:44;;;;;;;1.48;1.30;;;;;;;4.05;100.00;96766.41;5048403;28;20421;-84
2023/12/21 05:26:12;;;;;;;1.55;1.45;;;;;;;4.06;100.00;96765.38;5046971;28;20402;-85
2023/12/21 05:28:38;;;;;;;1.33;1.33;;;;;;;4.10;100.00;96758.66;5044732;28;20898;-86
2023/12/21 05:31:05;;;;;;;1.30;1.30;;;;;;;4.11;100.00;96754.22;5047687;28;20403;-85
2023/12/21 05:33:33;;;;;;;1.40;1.30;;;;;;;4.10;100.00;96742.94;5042729;28;20510;-85
2023/12/21 05:35:59;;;;;;;1.70;1.33;;;;;;;4.09;100.00;96748.41;5043637;28;20403;-86
2023/12/21 05:38:25;;;;;;;1.57;1.40;;;;;;;4.11;100.00;96764.72;5057922;28;20393;-85
2023/12/21 05:40:51;;;;;;;1.50;1.40;;;;;;;4.11;100.00;96735.91;5067028;28;20456;-86
2023/12/21 05:43:17;;;;;;;2.20;1.60;;;;;;;4.13;100.00;96726.00;5051163;28;20650;-85
2023/12/21 05:45:43;;;;;;;1.85;1.30;;;;;;;4.14;100.00;96725.75;5045392;28;20544;-86
2023/12/21 05:48:10;;;;;;;1.20;1.20;;;;;;;4.15;100.00;96721.31;5051162;28;20406;-86
2023/12/21 05:50:37;;;;;;;1.42;1.33;;;;;;;4.14;100.00;96711.84;5044479;28;20405;-83
2023/12/21 05:53:03;;;;;;;1.50;1.40;;;;;;;4.16;100.00;96717.69;5035833;28;20427;-85
2023/12/21 05:55:31;;;;;;;1.40;1.30;;;;;;;4.18;100.00;96715.63;5036684;28;20404;-83
2023/12/21 05:57:57;;;;;;;1.40;1.33;;;;;;;4.20;100.00;96717.00;5028086;28;20401;-81
2023/12/21 06:00:23;;;;;;;1.40;1.30;;;;;;;4.22;100.00;96714.94;5030025;28;20905;-82
2023/12/21 06:02:49;;;;;;;1.40;1.30;;;;;;;4.21;100.00;96717.81;5040552;28;20423;-83
2023/12/21 06:05:17;;;;;;;1.20;1.20;;;;;;;4.18;100.00;96700.72;5038486;28;20450;-83
2023/12/21 06:07:44;;;;;;;1.48;1.30;;;;;;;4.15;100.00;96698.53;5030305;28;20403;-80
2023/12/21 06:10:10;;;;;;;1.70;1.60;;;;;;;4.15;100.00;96695.13;5035945;28;20518;-83
2023/12/21 06:12:36;;;;;;;1.90;1.30;;;;;;;4.12;100.00;96687.75;5036879;28;20407;-81
2023/12/21 06:15:04;;;;;;;1.50;1.40;;;;;;;4.14;100.00;96678.59;5036221;28;20395;-84
2023/12/21 06:17:30;;;;;;;2.13;1.50;;;;;;;4.12;100.00;96690.34;5038674;28;20559;-83
2023/12/21 06:19:57;;;;;;;1.30;1.30;;;;;;;4.13;100.00;96679.66;5037530;28;20413;-83
2023/12/21 06:22:23;;;;;;;1.10;1.10;;;;;;;4.16;100.00;96665.28;5038366;28;20501;-84
2023/12/21 06:24:50;;;;;;;1.48;1.38;;;;;;;4.12;100.00;96662.34;5041012;28;20922;-85
2023/12/21 06:27:17;;;;;;;1.23;1.20;;;;;;;4.12;100.00;96644.00;5037324;28;20395;-84
2023/12/21 06:29:43;;;;;;;1.40;1.30;;;;;;;4.12;100.00;96638.78;5045504;28;20449;-84
2023/12/21 06:32:10;;;;;;;1.40;1.30;;;;;;;4.13;100.00;96635.13;5046014;28;20767;-84
2023/12/21 06:34:36;;;;;;;1.50;1.40;;;;;;;4.14;100.00;96613.13;5046154;28;20391;-83
2023/12/21 06:37:03;;;;;;;1.20;1.20;;;;;;;4.18;100.00;96610.88;5045795;28;20405;-84
2023/12/21 06:39:31;;;;;;;1.23;1.23;;;;;;;4.16;100.00;96600.63;5043460;28;20402;-84
2023/12/21 06:41:58;;;;;;;1.25;1.20;;;;;;;4.14;100.00;96607.09;5047918;28;20488;-85
2023/12/21 06:44:24;;;;;;;1.20;1.20;;;;;;;4.17;100.00;96602.22;5050484;28;20883;-84
2023/12/21 06:46:51;;;;;;;1.40;1.30;;;;;;;4.16;100.00;96610.28;5042111;28;20911;-84
2023/12/21 06:49:17;;;;;;;1.30;1.30;;;;;;;4.18;100.00;96608.25;5043968;28;20432;-84
2023/12/21 06:51:44;;;;;;;1.38;1.27;;;;;;;4.21;100.00;96610.41;5048803;28;20430;-84
2023/12/21 06:54:11;;;;;;;1.20;1.15;;;;;;;4.21;100.00;96615.66;5039678;28;20418;-85
2023/12/21 06:56:38;;;;;;;1.75;1.30;;;;;;;4.22;100.00;96611.97;5046754;28;20394;-85
2023/12/21 06:59:05;;;;;;;1.30;1.20;;;;;;;4.29;100.00;96602.19;5036124;28;20391;-84
2023/12/21 07:01:32;;;;;;;1.50;1.40;;;;;;;4.32;100.00;96606.19;5035828;28;20392;-84
2023/12/21 07:03:58;;;;;;;1.35;1.25;;;;;;;4.34;100.00;96609.38;5036354;28;20459;-84
2023/12/21 07:06:25;;;;;;;1.40;1.30;;;;;;;4.38;100.00;96600.00;5030646;28;20400;-85
2023/12/21 07:08:51;;;;;;;1.45;1.40;;;;;;;4.43;100.00;96605.38;5048774;28;20417;-82
2023/12/21 07:11:18;;;;;;;1.40;1.30;;;;;;;4.48;100.00;96594.97;5043619;28;20400;-81
2023/12/21 07:13:44;;;;;;;1.40;1.30;;;;;;;4.48;100.00;96592.38;5031133;28;20476;-81
2023/12/21 07:16:12;;;;;;;1.35;1.25;;;;;;;4.51;100.00;96597.91;5031795;28;20411;-82
2023/12/21 07:18:38;;;;;;;1.20;1.20;;;;;;;4.53;100.00;96582.78;5029034;28;20528;-80
2023/12/21 07:21:05;;;;;;;1.40;1.30;;;;;;;4.55;100.00;96578.09;5029000;28;20410;-80
2023/12/21 07:23:31;;;;;;;1.20;1.20;;;;;;;4.59;100.00;96579.22;5031230;28;20454;-80
2023/12/21 07:25:58;;;;;;;1.43;1.33;;;;;;;4.57;100.00;96565.56;5029190;28;20405;-81
2023/12/21 07:28:25;;;;;;;1.30;1.20;;;;;;;4.56;100.00;96571.84;5031270;28;20474;-83
2023/12/21 07:30:51;;;;;;;1.20;1.20;;;;;;;4.59;100.00;96583.66;5034807;28;20412;-82
2023/12/21 07:33:19;;;;;;;2.50;1.30;;;;;;;4.59;100.00;96576.59;5034945;28;20415;-83
2023/12/21 07:35:45;;;;;;;1.10;1.10;;;;;;;4.61;100.00;96566.69;5035994;28;20421;-83
2023/12/21 07:38:12;;;;;;;1.13;1.13;;;;;;;4.60;100.00;96554.59;5038170;28;20494;-86
2023/12/21 07:40:38;;;;;;;2.25;1.20;;;;;;;4.59;100.00;96560.88;5038264;28;20796;-82
2023/12/21 07:43:04;;;;;;;2.17;1.55;;;;;;;4.60;100.00;96556.44;5037393;28;20427;-83
2023/12/21 07:45:30;;;;;;;1.30;1.20;;;;;;;4.57;100.00;96552.47;5030685;28;20412;-84
2023/12/21 07:47:56;;;;;;;2.20;1.30;;;;;;;4.59;100.00;96560.06;5021002;28;20448;-83
2023/12/21 07:50:24;;;;;;;1.40;1.30;;;;;;;4.61;100.00;96565.88;5039795;28;20459;-84
2023/12/21 07:52:56;;;;;;;1.30;1.20;;;;;;;4.59;100.00;96566.13;5048609;28;20472;-84
2023/12/21 07:55:22;;;;;;;1.40;1.30;;;;;;;4.59;100.00;96553.00;5038591;28;20434;-84
2023/12/21 07:57:48;;;;;;;1.45;1.35;;;;;;;4.60;100.00;96554.59;5037031;28;20406;-83
2023/12/21 08:00:15;;;;;;;1.10;1.10;;;;;;;4.63;100.00;96541.03;5036629;28;20803;-84
2023/12/21 08:02:44;;;;;;;1.20;1.20;;;;;;;4.65;100.00;96543.44;5037862;28;20449;-84
2023/12/21 08:05:11;;;;;;;1.38;1.20;;;;;;;4.65;100.00;96530.34;5038406;28;20876;-85
2023/12/21 08:07:39;;;;;;;1.35;1.25;;;;;;;4.66;100.00;96539.78;5041715;28;20418;-86
2023/12/21 08:10:07;;;;;;;1.40;1.30;;;;;;;4.69;100.00;96547.16;5035409;28;20423;-85
2023/12/21 08:12:34;;;;;;;1.20;1.20;;;;;;;4.72;100.00;96554.56;5033451;28;20811;-84
2023/12/21 08:15:00;;;;;;;1.20;1.20;;;;;;;4.74;100.00;96555.13;5034734;28;20395;-85
2023/12/21 08:17:26;;;;;;;2.53;1.60;;;;;;;4.75;100.00;96548.06;5035040;28;20402;-85
2023/12/21 08:19:53;;;;;;;1.50;1.20;;;;;;;4.75;100.00;96537.56;5034959;28;20406;-85
2023/12/21 08:22:19;;;;;;;1.23;1.23;;;;;;;4.78;100.00;96534.47;5039151;28;20403;-84
2023/12/21 08:24:46;;;;;;;1.20;1.20;;;;;;;4.81;100.00;96540.03;5038012;28;20403;-85
2023/12/21 08:27:13;;;;;;;1.20;1.20;;;;;;;4.83;100.00;96516.22;5036415;28;20410;-84
2023/12/21 08:29:40;;;;;;;2.38;1.55;;;;;;;4.84;100.00;96523.84;5034382;28;20402;-85
2023/12/21 08:32:06;;;;;;;1.33;1.27;;;;;;;4.86;100.00;96508.69;5030311;28;20410;-84
2023/12/21 08:34:32;;;;;;;2.17;1.33;;;;;;;4.87;100.00;96501.63;5034066;28;20458;-85
2023/12/21 08:36:59;;;;;;;1.20;1.20;;;;;;;4.92;100.00;96507.75;5032657;28;20443;-85
2023/12/21 08:39:26;;;;;;;1.33;1.30;;;;;;;4.93;100.00;96511.16;5034239;28;20399;-85
2023/12/21 08:41:53;;;;;;;1.40;1.30;;;;;;;4.97;100.00;96514.88;5032997;28;20429;-85
2023/12/21 08:44:19;;;;;;;1.33;1.30;;;;;;;4.98;100.00;96522.53;5036614;28;20454;-84
2023/12/21 08:46:46;;;;;;;1.40;1.30;;;;;;;4.97;100.00;96528.78;5036930;28;20516;-84
2023/12/21 08:49:13;;;;;;;1.38;1.20;;;;;;;5.00;100.00;96524.91;5037935;28;20418;-85
2023/12/21 08:51:39;;;;;;;1.40;1.30;;;;;;;5.04;100.00;96512.91;5027541;28;20499;-84
2023/12/21 08:54:06;;;;;;;1.30;1.20;;;;;;;5.01;100.00;96519.44;5037378;28;20489;-84
2023/12/21 08:56:33;;;;;;;1.33;1.23;;;;;;;5.01;100.00;96508.94;5040430;28;20479;-84
2023/12/21 08:59:01;;;;;;;1.25;1.25;;;;;;;5.04;100.00;96502.41;5016259;28;20407;-85
2023/12/21 09:01:30;;;;;;;1.40;1.30;;;;;;;5.05;100.00;96509.25;5031720;28;20400;-84
2023/12/21 09:03:58;;;;;;;1.50;1.40;;;;;;;5.03;100.00;96521.81;5035520;28;20463;-85
2023/12/21 09:06:24;;;;;;;1.40;1.30;;;;;;;5.08;100.00;96519.28;5045021;28;20740;-83
2023/12/21 09:08:50;;;;;;;1.40;1.30;;;;;;;5.07;100.00;96505.38;5036127;28;20415;-84
2023/12/21 09:11:17;;;;;;;1.30;1.30;;;;;;;5.10;100.00;96498.06;5053867;28;20389;-84
2023/12/21 09:13:43;;;;;;;1.30;1.20;;;;;;;5.10;100.00;96500.69;5037273;28;20451;-82
2023/12/21 09:16:11;;;;;;;1.40;1.30;;;;;;;5.14;100.00;96480.81;5038847;28;20639;-81
2023/12/21 09:18:37;;;;;;;1.40;1.30;;;;;;;5.13;100.00;96482.63;5038809;28;20905;-80
2023/12/21 09:21:03;;;;;;;1.40;1.30;;;;;;;5.13;100.00;96451.16;5037631;28;20397;-80
2023/12/21 09:23:30;;;;;;;1.35;1.25;;;;;;;5.18;100.00;96445.22;5039308;28;20857;-80
2023/12/21 09:25:56;;;;;;;1.17;1.17;;;;;;;5.21;100.00;96437.63;5044287;28;20413;-82
2023/12/21 09:28:22;;;;;;;1.20;1.20;;;;;;;5.24;100.00;96452.13;5043291;28;20490;-82
2023/12/21 09:30:48;;;;;;;1.50;1.40;;;;;;;5.25;100.00;96448.47;5047726;28;20444;-80
2023/12/21 09:33:18;;;;;;;1.40;1.30;;;;;;;5.30;100.00;96435.41;5044209;28;20839;-83
2023/12/21 09:35:44;;;;;;;1.40;1.30;;;;;;;5.32;100.00;96436.75;5037484;28;20395;-84
2023/12/21 09:38:10;;;;;;;2.80;1.30;;;;;;;5.32;100.00;96434.16;5037075;28;20833;-83
2023/12/21 09:40:37;;;;;;;1.20;1.10;;;;;;;5.37;100.00;96430.78;5037503;28;20417;-83
2023/12/21 09:43:05;;;;;;;1.05;1.05;;;;;;;5.43;100.00;96435.06;5041657;28;20418;-83
2023/12/21 09:45:33;;;;;;;1.30;1.20;;;;;;;5.44;100.00;96437.44;5047514;28;20899;-83
2023/12/21 09:47:59;;;;;;;1.33;1.20;;;;;;;5.47;100.00;96424.91;5043477;28;20407;-85
2023/12/21 09:50:28;;;;;;;1.10;1.10;;;;;;;5.49;100.00;96404.47;5056066;28;20773;-83
2023/12/21 09:52:54;;;;;;;1.20;1.20;;;;;;;5.53;100.00;96387.16;5033214;28;20418;-84
2023/12/21 09:55:22;;;;;;;1.30;1.20;;;;;;;5.51;100.00;96397.09;5031633;28;20402;-84
2023/12/21 09:57:49;;;;;;;1.50;1.40;;;;;;;5.55;100.00;96382.47;5046280;28;20402;-84
2023/12/21 10:00:16;;;;;;;1.58;1.27;;;;;;;5.56;100.00;96365.69;5042270;28;20482;-84
2023/12/21 10:02:42;;;;;;;1.33;1.23;;;;;;;5.60;100.00;96372.84;5046936;28;20420;-84
2023/12/21 10:05:09;;;;;;;1.10;1.10;;;;;;;5.63;100.00;96374.19;5057909;28;20459;-84
2023/12/21 10:07:36;;;;;;;5.90;1.20;;;;;;;5.64;100.00;96386.28;5055126;28;20394;-84
2023/12/21 10:10:03;;;;;;;1.10;1.10;;;;;;;5.66;100.00;96398.09;5055353;28;20405;-86
2023/12/21 10:12:29;;;;;;;1.30;1.20;;;;;;;5.70;100.00;96396.59;5038994;28;20414;-83
2023/12/21 10:14:59;;;;;;;1.88;1.20;;;;;;;5.69;100.00;96391.56;5037965;28;20395;-84
2023/12/21 10:17:25;;;;;;;1.30;1.20;;;;;;;5.67;100.00;96365.56;5038132;28;20401;-84
2023/12/21 10:19:52;;;;;;;1.20;1.10;;;;;;;5.70;100.00;96354.59;5041153;28;20493;-83
2023/12/21 10:24:50;;;;;;;1.40;1.20;;;;;;;5.72;100.00;96334.09;5289007;22;20478;-86
2023/12/21 10:27:18;;;;;;;1.17;1.17;;;;;;;5.73;100.00;96322.56;5021046;28;20458;-85
2023/12/21 10:29:52;;;;;;;1.83;1.38;;;;;;;5.78;100.00;96293.75;5016801;28;20455;-83
2023/12/21 10:32:18;;;;;;;4.50;1.17;;;;;;;5.79;100.00;96295.31;5016812;28;20495;-82
2023/12/21 10:34:44;;;;;;;9.07;1.10;;;;;;;5.79;100.00;96297.94;5016653;28;20889;-83
2023/12/21 10:37:11;;;;;;;1.00;1.00;;;;;;;5.83;100.00;96285.13;5030975;28;20407;-84
2023/12/21 10:39:37;;;;;;;1.20;1.10;;;;;;;5.84;100.00;96277.00;5026268;28;20397;-84
2023/12/21 10:42:05;;;;;;;1.00;1.00;;;;;;;5.86;100.00;96273.34;5017109;28;20432;-83
2023/12/21 10:44:32;;;;;;;1.20;1.00;;;;;;;5.90;100.00;96269.19;5016819;28;20423;-83
2023/12/21 10:46:58;;;;;;;1.00;1.00;;;;;;;5.90;100.00;96242.94;5017582;28;20420;-84
2023/12/21 10:49:26;;;;;;;1.30;1.20;;;;;;;5.97;100.00;96218.06;5023460;28;20900;-85
2023/12/21 10:51:53;;;;;;;1.00;1.00;;;;;;;5.95;100.00;96209.63;5023955;28;20399;-85
2023/12/21 10:54:22;;;;;;;1.50;1.10;;;;;;;5.97;100.00;96212.00;5026810;28;20409;-85
2023/12/21 10:56:49;;;;;;;1.63;1.10;;;;;;;6.00;100.00;96193.94;5037509;28;20420;-84
2023/12/21 10:59:19;;;;;;;1.10;1.10;;;;;;;6.03;100.00;96187.38;5038002;28;20401;-85
2023/12/21 11:01:46;;;;;;;1.20;1.10;;;;;;;6.05;100.00;96191.34;5036833;28;20425;-81
2023/12/21 11:04:16;;;;;;;1.10;1.02;;;;;;;6.05;100.00;96178.19;5027082;28;20424;-80
2023/12/21 11:06:44;;;;;;;1.10;1.00;;;;;;;6.09;100.00;96171.38;5027228;28;20413;-82
2023/12/21 11:09:18;;;;;;;1.38;1.23;;;;;;;6.06;100.00;96163.22;5027357;28;20449;-82
2023/12/21 11:11:45;;;;;;;1.02;1.02;;;;;;;6.07;100.00;96170.88;5023414;28;20431;-83
2023/12/21 11:14:12;;;;;;;1.38;1.00;;;;;;;6.05;100.00;96186.06;5029376;28;20422;-85
2023/12/21 11:16:44;;;;;;;1.10;1.10;;;;;;;6.06;100.00;96171.91;5028961;28;20543;-83
2023/12/21 11:19:15;;;;;;;1.20;1.10;;;;;;;6.04;100.00;96146.91;5028188;28;20484;-83
2023/12/21 11:21:42;;;;;;;1.20;1.10;;;;;;;6.05;100.00;96130.13;5016799;28;20820;-83
2023/12/21 11:24:19;;;;;;;1.17;1.08;;;;;;;6.08;100.00;96140.13;5018171;28;20517;-83
2023/12/21 11:26:45;;;;;;;1.13;1.10;;;;;;;6.07;100.00;96134.09;5032167;28;20454;-83
2023/12/21 11:29:11;;;;;;;1.25;1.15;;;;;;;6.10;100.00;96128.31;5034490;28;20410;-82
2023/12/21 11:31:41;;;;;;;1.30;1.00;;;;;;;6.08;100.00;96140.13;5023182;28;20404;-84
2023/12/21 11:34:11;;;;;;;1.40;1.10;;;;;;;6.11;100.00;96121.22;5028977;28;20399;-83
2023/12/21 11:36:38;;;;;;;1.30;1.20;;;;;;;6.15;100.00;96119.69;5022939;28;20485;-84